createdAt,value
2022-10-29T00:07:29.693Z,101407.09
2022-10-29T00:17:31.291Z,101395.88
2022-10-29T00:27:33.114Z,101410.56
2022-10-29T00:37:36.135Z,101409.72
2022-10-29T00:47:38.254Z,101408.03
2022-10-29T00:57:43.633Z,101398.47
2022-10-29T01:07:47.727Z,101388.19
2022-10-29T01:18:27.774Z,101369.16
2022-10-29T01:29:21.928Z,101349.28
2022-10-29T01:39:33.869Z,101344.09
2022-10-29T01:49:42.954Z,101334.56
2022-10-29T01:59:55.638Z,101325.19
2022-10-29T02:10:11.855Z,101333.75
2022-10-29T02:20:16.162Z,101329.47
2022-10-29T02:30:18.587Z,101326.84
2022-10-29T02:40:21.120Z,101327.66
2022-10-29T02:50:22.705Z,101327.56
2022-10-29T03:00:24.324Z,101323.25
2022-10-29T03:10:25.924Z,101321.56
2022-10-29T03:20:27.585Z,101325.84
2022-10-29T03:30:32.292Z,101309.44
2022-10-29T03:40:33.862Z,101305.03
2022-10-29T03:50:39.649Z,101311.09
2022-10-29T04:00:42.489Z,101309.41
2022-10-29T04:10:45.821Z,101311.03
2022-10-29T04:23:01.925Z,101318.78
2022-10-29T04:31:12.299Z,101314.47
2022-10-29T04:41:14.938Z,101320.53
2022-10-29T04:51:22.063Z,101317.94
2022-10-29T05:01:25.297Z,101312.84
2022-10-29T05:11:27.100Z,101318.09
2022-10-29T05:21:32.592Z,101324.88
2022-10-29T05:31:34.237Z,101311.03
2022-10-29T05:41:35.950Z,101313.63
2022-10-29T05:51:37.774Z,101318.81
2022-10-29T06:01:40.540Z,101319.69
2022-10-29T06:11:47.311Z,101298.19
2022-10-29T06:21:52.540Z,101311.94
2022-10-29T06:31:56.776Z,101321.47
2022-10-29T06:42:00.440Z,101332.66
2022-10-29T06:52:02.018Z,101323.03
2022-10-29T07:02:03.730Z,101320.59
2022-10-29T07:12:06.019Z,101316.25
2022-10-29T07:22:10.785Z,101344.69
2022-10-29T07:32:12.399Z,101367.09
2022-10-29T07:42:14.037Z,101362.78
2022-10-29T07:52:16.762Z,101338.78
2022-10-29T08:02:19.467Z,101338.72
2022-10-29T08:12:21.568Z,101348.34
2022-10-29T08:22:24.430Z,101330.31
2022-10-29T08:32:35.758Z,101352.59
2022-10-29T08:42:58.562Z,101343.22
2022-10-29T08:53:22.325Z,101325.09
2022-10-29T09:03:30.986Z,101332.81
2022-10-29T09:13:50.887Z,101336.41
2022-10-29T09:24:05.455Z,101332.84
2022-10-29T09:34:18.044Z,101334.66
2022-10-29T09:44:38.059Z,101328.97
2022-10-29T09:54:39.858Z,101323.78
2022-10-29T10:04:49.220Z,101311.47
2022-10-29T10:15:06.746Z,101310.50
2022-10-29T10:25:32.796Z,101292.63
2022-10-29T10:35:35.817Z,101297.72
2022-10-29T10:45:40.266Z,101289.97
2022-10-29T10:55:49.074Z,101283.00
2022-10-29T11:06:08.488Z,101262.47
2022-10-29T11:16:31.244Z,101259.94
2022-10-29T11:26:36.680Z,101250.41
2022-10-29T11:36:47.159Z,101252.16
2022-10-29T11:47:28.906Z,101234.84
2022-10-29T11:57:55.724Z,101232.28
2022-10-29T12:08:03.330Z,101227.94
2022-10-29T12:18:23.328Z,101217.53
2022-10-29T12:28:34.653Z,101198.41
2022-10-29T12:38:45.582Z,101184.44
2022-10-29T12:49:05.638Z,101182.06
2022-10-29T12:59:27.369Z,101170.03
2022-10-29T13:09:36.826Z,101157.06
2022-10-29T13:20:09.073Z,101159.69
2022-10-29T13:30:27.175Z,101165.72
2022-10-29T13:40:32.622Z,101164.84
2022-10-29T13:50:35.322Z,101156.22
2022-10-29T14:00:38.706Z,101150.16
2022-10-29T14:10:40.324Z,101135.47
2022-10-29T14:20:57.265Z,101143.25
2022-10-29T14:31:21.918Z,101142.41
2022-10-29T14:41:25.730Z,101146.66
2022-10-29T14:51:28.439Z,101141.50
2022-10-29T15:01:31.429Z,101138.88
2022-10-29T15:11:47.777Z,101143.19
2022-10-29T15:21:50.282Z,101123.31
2022-10-29T15:31:55.850Z,101114.66
2022-10-29T15:42:01.188Z,101112.91
2022-10-29T15:52:09.071Z,101114.66
2022-10-29T16:02:17.509Z,101127.56
2022-10-29T16:12:21.811Z,101122.41
2022-10-29T16:22:30.954Z,101125.88
2022-10-29T16:32:33.002Z,101123.25
2022-10-29T16:42:36.305Z,101114.63
2022-10-29T16:52:39.894Z,101116.34
2022-10-29T17:02:44.814Z,101116.34
2022-10-29T17:12:49.572Z,101105.13
2022-10-29T17:22:53.731Z,101118.91
2022-10-29T17:32:55.763Z,101090.44
2022-10-29T17:42:59.586Z,101087.00
2022-10-29T17:53:02.146Z,101099.91
2022-10-29T18:03:05.148Z,101101.66
2022-10-29T18:13:07.530Z,101091.28
2022-10-29T18:23:10.293Z,101116.34
2022-10-29T18:33:13.323Z,101096.47
2022-10-29T18:43:14.982Z,101106.84
2022-10-29T18:53:17.365Z,101083.59
2022-10-29T19:03:20.368Z,101072.38
2022-10-29T19:13:24.057Z,101052.50
2022-10-29T19:23:26.271Z,101056.84
2022-10-29T19:33:30.810Z,101054.22
2022-10-29T19:43:32.919Z,101057.69
2022-10-29T19:53:37.412Z,101047.34
2022-10-29T20:03:39.032Z,101037.00
2022-10-29T20:13:41.095Z,101038.75
2022-10-29T20:23:43.577Z,101043.03
2022-10-29T20:33:56.796Z,101043.88
2022-10-29T20:43:59.820Z,101039.56
2022-10-29T20:54:01.578Z,101051.66
2022-10-29T21:04:04.396Z,101054.25
2022-10-29T21:14:08.775Z,101049.97
2022-10-29T21:24:17.912Z,101049.94
2022-10-29T21:34:19.557Z,101059.44
2022-10-29T21:44:21.789Z,101041.31
2022-10-29T21:54:25.791Z,101048.22
2022-10-29T22:04:30.089Z,101040.47
2022-10-29T22:14:31.694Z,101032.69
2022-10-29T22:24:34.562Z,101039.59
2022-10-29T22:34:37.582Z,101034.41
2022-10-29T22:44:39.163Z,101024.91
2022-10-29T22:54:41.828Z,101011.94
2022-10-29T23:04:43.385Z,101000.75
2022-10-29T23:14:45.009Z,100989.53
2022-10-29T23:24:52.468Z,100994.69
2022-10-29T23:34:54.097Z,101002.47
2022-10-29T23:44:56.293Z,100985.19
2022-10-29T23:54:59.486Z,100981.75
